Historique des mesures à Cassis (13260), France
Quotidien Résumé Mars 10, 2017 Unités:  Métrique    US   Métrique/US
« Précédent (Jour)
Suivant (Jour) »
Quotidien Hebdomadaire Mensuel Annuel Période au choix
  Maximum: Minimum: Moyenne:
Température: TemperatureC °C 13.3 °C 16.4 °C
Point de rosée: DewpointC °C 4.9 °C 7.3 °C
Humidité: Humidity % 43 % 52 %
Vitesse du vent: 0 km/h 0 km/h 9.7 km/h
Rafales: 0 km/h - -
Vent:- - SSE
Pression: PressurehPa hPa 1012.1 hPa -
Précipitations: 0.0 mm    
Historical Graphs
 
 
Mesures pour : Mars 10, 2017
Heure Temperature Point de rosée Pression Vent Vitesse du vent Rafales Humidité Pluie (par heure) Conditions
TemperatureC °C DewpointC °C PressurehPa hPa Calm     Humidity % HourlyPrecipMM mm SoftwareType W/m2
00:11 15.1 °C 7.1 °C 1014.4 hPa NNE 13.2 km/h 24.8 km/h 59 % 0.0 mm open2300-1.11 W/m2
01:10 14.9 °C 6.9 °C 1014.4 hPa North 2.9 km/h 11.6 km/h 59 % 0.0 mm open2300-1.11 W/m2
02:11 14.9 °C 6.9 °C 1014.1 hPa WNW 10.9 km/h 27.2 km/h 59 % 0.0 mm open2300-1.11 W/m2
03:10 14.9 °C 6.9 °C 1013.4 hPa West 5.1 km/h 13.2 km/h 59 % 0.0 mm open2300-1.11 W/m2
04:11 14.4 °C 6.8 °C 1012.8 hPa North 6.4 km/h 14.5 km/h 60 % 0.0 mm open2300-1.11 W/m2
05:10 13.9 °C 6.9 °C 1012.8 hPa WNW 16.3 km/h 17.4 km/h 63 % 0.0 mm open2300-1.11 W/m2
06:11 13.6 °C 6.7 °C 1012.8 hPa North 22 km/h 22 km/h 63 % 0.0 mm open2300-1.11 W/m2
07:10 13.3 °C 6.6 °C 1012.8 hPa NNW 14.5 km/h 14.5 km/h 64 % 0.0 mm open2300-1.11 W/m2
08:11 14.0 °C 7.1 °C 1012.8 hPa NNE 26.7 km/h 26.7 km/h 63 % 0.0 mm open2300-1.11 W/m2
09:10 15.1 °C 7.6 °C 1013.4 hPa North 21.6 km/h 21.6 km/h 61 % 0.0 mm open2300-1.11 W/m2
10:11 16.5 °C 7.8 °C 1013.1 hPa North 10.9 km/h 12.7 km/h 57 % 0.0 mm open2300-1.11 W/m2
11:10 18.4 °C 8.6 °C 1013.8 hPa East 2.3 km/h 12.7 km/h 53 % 0.0 mm open2300-1.11 W/m2
12:11 20.0 °C 8.3 °C 1013.4 hPa NW 30.7 km/h 30.7 km/h 47 % 0.0 mm open2300-1.11 W/m2
13:10 21.4 °C 8.6 °C 1012.8 hPa North 5.6 km/h 9.8 km/h 44 % 0.0 mm open2300-1.11 W/m2
14:11 22.5 °C 9.2 °C 1012.4 hPa NNW 6.4 km/h 9.8 km/h 43 % 0.0 mm open2300-1.11 W/m2
15:10 22.2 °C 9.6 °C 1012.1 hPa WSW 14 km/h 14 km/h 45 % 0.0 mm open2300-1.11 W/m2
16:11 22.1 °C 9.6 °C 1012.4 hPa West 8.9 km/h 20.9 km/h 45 % 0.0 mm open2300-1.11 W/m2
17:10 21.9 °C 9.7 °C 1012.8 hPa Calm   2.9 km/h 46 % 0.0 mm open2300-1.11 W/m2
18:11 20.5 °C 8.8 °C 1013.4 hPa Calm     47 % 0.0 mm open2300-1.11 W/m2
19:10 18.1 °C 8.1 °C 1014.1 hPa Calm   4.2 km/h 52 % 0.0 mm open2300-1.11 W/m2
21:10 16.5 °C 7.1 °C 1014.4 hPa NW 10.3 km/h 10.3 km/h 54 % 0.0 mm open2300-1.11 W/m2
22:11 15.5 °C 5.9 °C 1014.4 hPa Calm     53 % 0.0 mm open2300-1.11 W/m2
23:10 14.9 °C 4.9 °C 1014.8 hPa North 1.8 km/h 5.6 km/h 51 % 0.0 mm open2300-1.11 W/m2
Observations météo à CASSIS
WU-History script by Weather Underground - 1 mb